sensor_id;sensor_type;location;lat;lon;timestamp;P1;durP1;ratioP1;P2;durP2;ratioP2
67352;SDS011;54238;52.278;21.056;2022-08-21T00:02:21;7.60;;;5.00;;
67352;SDS011;54238;52.278;21.056;2022-08-21T00:04:56;7.70;;;4.80;;
67352;SDS011;54238;52.278;21.056;2022-08-21T00:07:25;7.60;;;4.20;;
67352;SDS011;54238;52.278;21.056;2022-08-21T00:09:53;7.30;;;4.90;;
67352;SDS011;54238;52.278;21.056;2022-08-21T00:12:21;10.20;;;5.10;;
67352;SDS011;54238;52.278;21.056;2022-08-21T00:14:53;8.50;;;5.00;;
67352;SDS011;54238;52.278;21.056;2022-08-21T00:17:20;6.80;;;4.50;;
67352;SDS011;54238;52.278;21.056;2022-08-21T00:19:51;7.60;;;4.60;;
67352;SDS011;54238;52.278;21.056;2022-08-21T00:22:18;8.30;;;4.60;;
67352;SDS011;54238;52.278;21.056;2022-08-21T00:24:48;15.80;;;5.10;;
67352;SDS011;54238;52.278;21.056;2022-08-21T00:27:22;4.80;;;4.20;;
67352;SDS011;54238;52.278;21.056;2022-08-21T00:29:51;12.50;;;4.90;;
67352;SDS011;54238;52.278;21.056;2022-08-21T00:32:23;5.70;;;4.50;;
67352;SDS011;54238;52.278;21.056;2022-08-21T00:34:55;7.70;;;4.60;;
67352;SDS011;54238;52.278;21.056;2022-08-21T00:37:22;8.90;;;4.70;;
67352;SDS011;54238;52.278;21.056;2022-08-21T00:39:49;6.90;;;4.50;;
67352;SDS011;54238;52.278;21.056;2022-08-21T00:42:17;6.10;;;4.30;;
67352;SDS011;54238;52.278;21.056;2022-08-21T00:44:48;9.10;;;4.90;;
67352;SDS011;54238;52.278;21.056;2022-08-21T00:47:18;7.20;;;4.60;;
67352;SDS011;54238;52.278;21.056;2022-08-21T00:49:47;7.70;;;4.50;;
67352;SDS011;54238;52.278;21.056;2022-08-21T00:52:21;6.30;;;4.40;;
67352;SDS011;54238;52.278;21.056;2022-08-21T00:54:55;13.10;;;4.40;;
67352;SDS011;54238;52.278;21.056;2022-08-21T00:57:36;8.90;;;4.50;;
67352;SDS011;54238;52.278;21.056;2022-08-21T01:00:20;6.30;;;4.40;;
67352;SDS011;54238;52.278;21.056;2022-08-21T01:02:56;9.20;;;5.10;;
67352;SDS011;54238;52.278;21.056;2022-08-21T01:05:24;9.70;;;5.00;;
67352;SDS011;54238;52.278;21.056;2022-08-21T01:07:55;5.90;;;4.30;;
67352;SDS011;54238;52.278;21.056;2022-08-21T01:10:30;6.60;;;4.90;;
67352;SDS011;54238;52.278;21.056;2022-08-21T01:13:02;6.20;;;4.40;;
67352;SDS011;54238;52.278;21.056;2022-08-21T01:15:36;7.20;;;4.50;;
67352;SDS011;54238;52.278;21.056;2022-08-21T01:18:10;6.30;;;4.60;;
67352;SDS011;54238;52.278;21.056;2022-08-21T01:21:12;11.20;;;4.70;;
67352;SDS011;54238;52.278;21.056;2022-08-21T01:23:47;7.00;;;4.70;;
67352;SDS011;54238;52.278;21.056;2022-08-21T01:26:22;6.10;;;4.80;;
67352;SDS011;54238;52.278;21.056;2022-08-21T01:28:55;7.30;;;4.80;;
67352;SDS011;54238;52.278;21.056;2022-08-21T01:31:28;10.70;;;5.40;;
67352;SDS011;54238;52.278;21.056;2022-08-21T01:34:02;7.30;;;4.80;;
67352;SDS011;54238;52.278;21.056;2022-08-21T01:36:33;9.90;;;5.00;;
67352;SDS011;54238;52.278;21.056;2022-08-21T01:39:08;10.50;;;5.30;;
67352;SDS011;54238;52.278;21.056;2022-08-21T01:41:38;10.50;;;5.20;;
67352;SDS011;54238;52.278;21.056;2022-08-21T01:44:10;11.40;;;5.30;;
67352;SDS011;54238;52.278;21.056;2022-08-21T01:46:44;6.70;;;4.70;;
67352;SDS011;54238;52.278;21.056;2022-08-21T01:49:14;13.40;;;5.60;;
67352;SDS011;54238;52.278;21.056;2022-08-21T01:51:42;9.60;;;5.60;;
67352;SDS011;54238;52.278;21.056;2022-08-21T01:54:16;6.80;;;5.00;;
67352;SDS011;54238;52.278;21.056;2022-08-21T01:56:48;5.80;;;4.80;;
67352;SDS011;54238;52.278;21.056;2022-08-21T01:59:20;6.50;;;4.90;;
67352;SDS011;54238;52.278;21.056;2022-08-21T02:01:51;7.30;;;5.30;;
67352;SDS011;54238;52.278;21.056;2022-08-21T02:04:20;8.00;;;5.60;;
67352;SDS011;54238;52.278;21.056;2022-08-21T02:06:53;8.80;;;5.40;;
67352;SDS011;54238;52.278;21.056;2022-08-21T02:09:22;6.10;;;5.20;;
67352;SDS011;54238;52.278;21.056;2022-08-21T02:11:49;8.70;;;5.80;;
67352;SDS011;54238;52.278;21.056;2022-08-21T02:14:18;9.50;;;6.40;;
67352;SDS011;54238;52.278;21.056;2022-08-21T02:16:47;11.30;;;5.70;;
67352;SDS011;54238;52.278;21.056;2022-08-21T02:19:15;8.40;;;5.70;;
67352;SDS011;54238;52.278;21.056;2022-08-21T02:21:46;13.10;;;6.10;;
67352;SDS011;54238;52.278;21.056;2022-08-21T02:24:15;12.40;;;5.90;;
67352;SDS011;54238;52.278;21.056;2022-08-21T02:26:47;12.80;;;6.00;;
67352;SDS011;54238;52.278;21.056;2022-08-21T02:29:16;10.00;;;5.70;;
67352;SDS011;54238;52.278;21.056;2022-08-21T02:31:44;11.60;;;6.20;;
67352;SDS011;54238;52.278;21.056;2022-08-21T02:34:11;9.50;;;6.30;;
67352;SDS011;54238;52.278;21.056;2022-08-21T02:36:38;8.90;;;5.90;;
67352;SDS011;54238;52.278;21.056;2022-08-21T02:39:07;8.40;;;5.80;;
67352;SDS011;54238;52.278;21.056;2022-08-21T02:41:39;10.20;;;5.90;;
67352;SDS011;54238;52.278;21.056;2022-08-21T02:44:08;10.50;;;6.00;;
67352;SDS011;54238;52.278;21.056;2022-08-21T02:46:40;8.20;;;6.10;;
67352;SDS011;54238;52.278;21.056;2022-08-21T02:49:09;7.30;;;5.80;;
67352;SDS011;54238;52.278;21.056;2022-08-21T02:51:36;8.20;;;5.90;;
67352;SDS011;54238;52.278;21.056;2022-08-21T02:54:06;12.30;;;6.20;;
67352;SDS011;54238;52.278;21.056;2022-08-21T02:56:37;9.90;;;5.80;;
67352;SDS011;54238;52.278;21.056;2022-08-21T02:59:06;9.50;;;5.60;;
67352;SDS011;54238;52.278;21.056;2022-08-21T03:01:38;9.50;;;6.00;;
67352;SDS011;54238;52.278;21.056;2022-08-21T03:04:05;9.30;;;6.10;;
67352;SDS011;54238;52.278;21.056;2022-08-21T03:06:34;7.10;;;5.60;;
67352;SDS011;54238;52.278;21.056;2022-08-21T03:09:06;14.30;;;6.40;;
67352;SDS011;54238;52.278;21.056;2022-08-21T03:11:34;8.90;;;5.20;;
67352;SDS011;54238;52.278;21.056;2022-08-21T03:14:02;9.80;;;6.20;;
67352;SDS011;54238;52.278;21.056;2022-08-21T03:16:31;8.30;;;5.60;;
67352;SDS011;54238;52.278;21.056;2022-08-21T03:18:58;9.00;;;5.90;;
67352;SDS011;54238;52.278;21.056;2022-08-21T03:21:33;6.80;;;5.60;;
67352;SDS011;54238;52.278;21.056;2022-08-21T03:24:02;11.00;;;5.40;;
67352;SDS011;54238;52.278;21.056;2022-08-21T03:26:30;8.90;;;6.10;;
67352;SDS011;54238;52.278;21.056;2022-08-21T03:29:02;6.30;;;5.20;;
67352;SDS011;54238;52.278;21.056;2022-08-21T03:31:32;9.10;;;5.60;;
67352;SDS011;54238;52.278;21.056;2022-08-21T03:33:59;6.70;;;5.60;;
67352;SDS011;54238;52.278;21.056;2022-08-21T03:36:26;5.70;;;5.00;;
67352;SDS011;54238;52.278;21.056;2022-08-21T03:38:56;12.70;;;5.50;;
67352;SDS011;54238;52.278;21.056;2022-08-21T03:41:23;6.40;;;5.60;;
67352;SDS011;54238;52.278;21.056;2022-08-21T03:43:50;9.40;;;5.30;;
67352;SDS011;54238;52.278;21.056;2022-08-21T03:46:22;7.40;;;5.50;;
67352;SDS011;54238;52.278;21.056;2022-08-21T03:48:56;6.30;;;5.20;;
67352;SDS011;54238;52.278;21.056;2022-08-21T03:51:26;8.10;;;6.10;;
67352;SDS011;54238;52.278;21.056;2022-08-21T03:53:54;6.00;;;5.30;;
67352;SDS011;54238;52.278;21.056;2022-08-21T03:56:24;7.50;;;5.30;;
67352;SDS011;54238;52.278;21.056;2022-08-21T03:58:54;6.80;;;5.20;;
67352;SDS011;54238;52.278;21.056;2022-08-21T04:01:23;5.60;;;4.80;;
67352;SDS011;54238;52.278;21.056;2022-08-21T04:03:53;7.70;;;4.50;;
67352;SDS011;54238;52.278;21.056;2022-08-21T04:06:22;7.20;;;5.10;;
67352;SDS011;54238;52.278;21.056;2022-08-21T04:08:55;5.10;;;4.40;;
67352;SDS011;54238;52.278;21.056;2022-08-21T04:11:24;5.90;;;5.10;;
67352;SDS011;54238;52.278;21.056;2022-08-21T04:13:51;8.30;;;5.50;;
67352;SDS011;54238;52.278;21.056;2022-08-21T04:16:18;6.90;;;4.60;;
67352;SDS011;54238;52.278;21.056;2022-08-21T04:18:49;6.20;;;5.30;;
67352;SDS011;54238;52.278;21.056;2022-08-21T04:21:21;7.00;;;5.30;;
67352;SDS011;54238;52.278;21.056;2022-08-21T04:23:55;11.00;;;4.80;;
67352;SDS011;54238;52.278;21.056;2022-08-21T04:26:22;9.50;;;5.60;;
67352;SDS011;54238;52.278;21.056;2022-08-21T04:28:53;8.30;;;5.20;;
67352;SDS011;54238;52.278;21.056;2022-08-21T04:31:24;7.30;;;5.20;;
67352;SDS011;54238;52.278;21.056;2022-08-21T04:33:56;9.10;;;5.40;;
67352;SDS011;54238;52.278;21.056;2022-08-21T04:36:28;8.60;;;5.30;;
67352;SDS011;54238;52.278;21.056;2022-08-21T04:38:55;6.00;;;5.40;;
67352;SDS011;54238;52.278;21.056;2022-08-21T04:41:22;7.30;;;5.40;;
67352;SDS011;54238;52.278;21.056;2022-08-21T04:43:49;7.60;;;4.70;;
67352;SDS011;54238;52.278;21.056;2022-08-21T04:46:16;7.20;;;5.70;;
67352;SDS011;54238;52.278;21.056;2022-08-21T04:48:45;7.80;;;5.00;;
67352;SDS011;54238;52.278;21.056;2022-08-21T04:51:18;9.90;;;5.00;;
67352;SDS011;54238;52.278;21.056;2022-08-21T04:54:02;8.10;;;5.40;;
67352;SDS011;54238;52.278;21.056;2022-08-21T04:56:39;6.30;;;4.70;;
67352;SDS011;54238;52.278;21.056;2022-08-21T04:59:17;7.40;;;5.20;;
67352;SDS011;54238;52.278;21.056;2022-08-21T05:01:51;11.70;;;5.50;;
67352;SDS011;54238;52.278;21.056;2022-08-21T05:04:29;8.90;;;4.80;;
67352;SDS011;54238;52.278;21.056;2022-08-21T05:07:09;5.80;;;4.80;;
67352;SDS011;54238;52.278;21.056;2022-08-21T05:09:39;7.30;;;4.90;;
67352;SDS011;54238;52.278;21.056;2022-08-21T05:12:11;8.20;;;5.20;;
67352;SDS011;54238;52.278;21.056;2022-08-21T05:14:41;8.30;;;4.70;;
67352;SDS011;54238;52.278;21.056;2022-08-21T05:17:15;6.90;;;5.00;;
67352;SDS011;54238;52.278;21.056;2022-08-21T05:19:44;7.70;;;4.60;;
67352;SDS011;54238;52.278;21.056;2022-08-21T05:22:25;6.20;;;5.10;;
67352;SDS011;54238;52.278;21.056;2022-08-21T05:24:52;11.70;;;5.50;;
67352;SDS011;54238;52.278;21.056;2022-08-21T05:27:21;7.80;;;5.00;;
67352;SDS011;54238;52.278;21.056;2022-08-21T05:29:52;10.20;;;5.20;;
67352;SDS011;54238;52.278;21.056;2022-08-21T05:32:24;8.20;;;5.20;;
67352;SDS011;54238;52.278;21.056;2022-08-21T05:34:51;6.40;;;4.70;;
67352;SDS011;54238;52.278;21.056;2022-08-21T05:37:18;8.40;;;5.20;;
67352;SDS011;54238;52.278;21.056;2022-08-21T05:39:48;8.80;;;5.00;;
67352;SDS011;54238;52.278;21.056;2022-08-21T05:44:46;8.60;;;5.20;;
67352;SDS011;54238;52.278;21.056;2022-08-21T05:47:18;5.60;;;4.60;;
67352;SDS011;54238;52.278;21.056;2022-08-21T05:49:50;7.80;;;4.80;;
67352;SDS011;54238;52.278;21.056;2022-08-21T05:52:21;11.00;;;5.10;;
67352;SDS011;54238;52.278;21.056;2022-08-21T05:54:48;6.90;;;5.20;;
67352;SDS011;54238;52.278;21.056;2022-08-21T05:57:21;7.50;;;4.70;;
67352;SDS011;54238;52.278;21.056;2022-08-21T05:59:54;13.40;;;4.90;;
67352;SDS011;54238;52.278;21.056;2022-08-21T06:02:21;13.30;;;5.10;;
67352;SDS011;54238;52.278;21.056;2022-08-21T06:04:56;17.10;;;5.20;;
67352;SDS011;54238;52.278;21.056;2022-08-21T06:07:23;10.70;;;4.80;;
67352;SDS011;54238;52.278;21.056;2022-08-21T06:09:50;7.80;;;5.00;;
67352;SDS011;54238;52.278;21.056;2022-08-21T06:12:19;8.10;;;5.30;;
67352;SDS011;54238;52.278;21.056;2022-08-21T06:14:48;11.00;;;5.10;;
67352;SDS011;54238;52.278;21.056;2022-08-21T06:17:23;8.80;;;5.30;;
67352;SDS011;54238;52.278;21.056;2022-08-21T06:19:55;7.60;;;4.70;;
67352;SDS011;54238;52.278;21.056;2022-08-21T06:22:27;10.30;;;5.10;;
67352;SDS011;54238;52.278;21.056;2022-08-21T06:24:55;6.30;;;4.50;;
67352;SDS011;54238;52.278;21.056;2022-08-21T06:27:24;7.40;;;4.60;;
67352;SDS011;54238;52.278;21.056;2022-08-21T06:30:04;10.10;;;4.80;;
67352;SDS011;54238;52.278;21.056;2022-08-21T06:32:37;9.30;;;5.10;;
67352;SDS011;54238;52.278;21.056;2022-08-21T06:35:12;10.30;;;4.90;;
67352;SDS011;54238;52.278;21.056;2022-08-21T06:37:41;8.80;;;5.70;;
67352;SDS011;54238;52.278;21.056;2022-08-21T06:40:15;12.90;;;5.10;;
67352;SDS011;54238;52.278;21.056;2022-08-21T06:42:44;11.60;;;5.10;;
67352;SDS011;54238;52.278;21.056;2022-08-21T06:45:11;7.00;;;5.10;;
67352;SDS011;54238;52.278;21.056;2022-08-21T06:47:38;8.90;;;5.30;;
67352;SDS011;54238;52.278;21.056;2022-08-21T06:50:10;11.10;;;5.30;;
67352;SDS011;54238;52.278;21.056;2022-08-21T06:52:38;7.70;;;6.40;;
67352;SDS011;54238;52.278;21.056;2022-08-21T06:55:07;6.90;;;5.40;;
67352;SDS011;54238;52.278;21.056;2022-08-21T06:57:38;9.00;;;6.30;;
67352;SDS011;54238;52.278;21.056;2022-08-21T07:00:09;8.70;;;6.00;;
67352;SDS011;54238;52.278;21.056;2022-08-21T07:02:42;15.90;;;10.50;;
67352;SDS011;54238;52.278;21.056;2022-08-21T07:05:11;9.30;;;5.70;;
67352;SDS011;54238;52.278;21.056;2022-08-21T07:07:45;8.00;;;5.60;;
67352;SDS011;54238;52.278;21.056;2022-08-21T07:10:15;10.00;;;7.20;;
67352;SDS011;54238;52.278;21.056;2022-08-21T07:12:48;14.50;;;8.90;;
67352;SDS011;54238;52.278;21.056;2022-08-21T07:15:25;13.60;;;5.90;;
67352;SDS011;54238;52.278;21.056;2022-08-21T07:17:54;10.70;;;5.60;;
67352;SDS011;54238;52.278;21.056;2022-08-21T07:20:21;12.20;;;6.50;;
67352;SDS011;54238;52.278;21.056;2022-08-21T07:22:50;9.10;;;5.20;;
67352;SDS011;54238;52.278;21.056;2022-08-21T07:25:20;12.60;;;5.90;;
67352;SDS011;54238;52.278;21.056;2022-08-21T07:27:52;11.80;;;8.80;;
67352;SDS011;54238;52.278;21.056;2022-08-21T07:30:24;13.30;;;6.10;;
67352;SDS011;54238;52.278;21.056;2022-08-21T07:32:56;6.80;;;5.40;;
67352;SDS011;54238;52.278;21.056;2022-08-21T07:35:24;6.00;;;5.20;;
67352;SDS011;54238;52.278;21.056;2022-08-21T07:37:56;12.60;;;5.10;;
67352;SDS011;54238;52.278;21.056;2022-08-21T07:40:27;9.40;;;5.70;;
67352;SDS011;54238;52.278;21.056;2022-08-21T07:42:54;7.30;;;4.50;;
67352;SDS011;54238;52.278;21.056;2022-08-21T07:45:23;9.10;;;5.90;;
67352;SDS011;54238;52.278;21.056;2022-08-21T07:47:53;8.70;;;5.70;;
67352;SDS011;54238;52.278;21.056;2022-08-21T07:50:23;7.40;;;5.40;;
67352;SDS011;54238;52.278;21.056;2022-08-21T07:52:51;12.60;;;6.00;;
67352;SDS011;54238;52.278;21.056;2022-08-21T07:55:22;9.60;;;5.40;;
67352;SDS011;54238;52.278;21.056;2022-08-21T07:57:50;7.80;;;6.10;;
67352;SDS011;54238;52.278;21.056;2022-08-21T08:00:22;10.60;;;6.10;;
67352;SDS011;54238;52.278;21.056;2022-08-21T08:02:56;8.10;;;5.50;;
67352;SDS011;54238;52.278;21.056;2022-08-21T08:05:34;7.10;;;5.60;;
67352;SDS011;54238;52.278;21.056;2022-08-21T08:08:04;9.50;;;5.00;;
67352;SDS011;54238;52.278;21.056;2022-08-21T08:10:35;11.90;;;7.40;;
67352;SDS011;54238;52.278;21.056;2022-08-21T08:13:05;5.70;;;4.80;;
67352;SDS011;54238;52.278;21.056;2022-08-21T08:15:32;7.40;;;5.90;;
67352;SDS011;54238;52.278;21.056;2022-08-21T08:18:18;13.10;;;7.00;;
67352;SDS011;54238;52.278;21.056;2022-08-21T08:20:50;7.40;;;4.60;;
67352;SDS011;54238;52.278;21.056;2022-08-21T08:23:17;5.70;;;4.80;;
67352;SDS011;54238;52.278;21.056;2022-08-21T08:25:47;10.50;;;5.30;;
67352;SDS011;54238;52.278;21.056;2022-08-21T08:28:21;10.10;;;5.10;;
67352;SDS011;54238;52.278;21.056;2022-08-21T08:31:27;7.90;;;4.80;;
67352;SDS011;54238;52.278;21.056;2022-08-21T08:34:56;7.00;;;4.90;;
67352;SDS011;54238;52.278;21.056;2022-08-21T08:37:26;7.50;;;4.70;;
67352;SDS011;54238;52.278;21.056;2022-08-21T08:40:02;10.10;;;6.30;;
67352;SDS011;54238;52.278;21.056;2022-08-21T08:42:51;10.90;;;4.90;;
67352;SDS011;54238;52.278;21.056;2022-08-21T08:45:48;8.30;;;4.70;;
67352;SDS011;54238;52.278;21.056;2022-08-21T08:52:24;4.40;;;3.90;;
67352;SDS011;54238;52.278;21.056;2022-08-21T08:55:40;5.50;;;4.40;;
67352;SDS011;54238;52.278;21.056;2022-08-21T08:58:41;7.00;;;5.40;;
67352;SDS011;54238;52.278;21.056;2022-08-21T09:01:19;4.60;;;4.00;;
67352;SDS011;54238;52.278;21.056;2022-08-21T09:03:50;7.90;;;5.20;;
67352;SDS011;54238;52.278;21.056;2022-08-21T09:06:30;8.80;;;4.00;;
67352;SDS011;54238;52.278;21.056;2022-08-21T09:12:04;5.20;;;3.90;;
67352;SDS011;54238;52.278;21.056;2022-08-21T09:14:50;7.10;;;4.30;;
67352;SDS011;54238;52.278;21.056;2022-08-21T09:20:52;8.90;;;3.90;;
67352;SDS011;54238;52.278;21.056;2022-08-21T09:24:02;8.40;;;3.50;;
67352;SDS011;54238;52.278;21.056;2022-08-21T09:26:48;6.30;;;4.00;;
67352;SDS011;54238;52.278;21.056;2022-08-21T09:29:23;5.30;;;3.60;;
67352;SDS011;54238;52.278;21.056;2022-08-21T09:31:58;7.10;;;3.80;;
67352;SDS011;54238;52.278;21.056;2022-08-21T09:34:30;5.50;;;3.30;;
67352;SDS011;54238;52.278;21.056;2022-08-21T09:37:02;9.10;;;4.10;;
67352;SDS011;54238;52.278;21.056;2022-08-21T09:39:37;4.50;;;3.70;;
67352;SDS011;54238;52.278;21.056;2022-08-21T09:42:08;5.90;;;3.30;;
67352;SDS011;54238;52.278;21.056;2022-08-21T09:44:41;5.10;;;3.40;;
67352;SDS011;54238;52.278;21.056;2022-08-21T09:47:18;3.90;;;3.10;;
67352;SDS011;54238;52.278;21.056;2022-08-21T09:49:47;5.50;;;3.20;;
67352;SDS011;54238;52.278;21.056;2022-08-21T09:52:26;7.30;;;3.30;;
67352;SDS011;54238;52.278;21.056;2022-08-21T09:54:56;5.80;;;2.90;;
67352;SDS011;54238;52.278;21.056;2022-08-21T09:57:26;5.30;;;3.40;;
67352;SDS011;54238;52.278;21.056;2022-08-21T10:00:11;5.10;;;2.80;;
67352;SDS011;54238;52.278;21.056;2022-08-21T10:02:45;4.20;;;2.60;;
67352;SDS011;54238;52.278;21.056;2022-08-21T10:05:26;6.80;;;3.40;;
67352;SDS011;54238;52.278;21.056;2022-08-21T10:07:55;5.50;;;3.40;;
67352;SDS011;54238;52.278;21.056;2022-08-21T10:10:31;3.60;;;3.10;;
67352;SDS011;54238;52.278;21.056;2022-08-21T10:16:12;3.70;;;3.00;;
67352;SDS011;54238;52.278;21.056;2022-08-21T10:19:01;6.20;;;3.30;;
67352;SDS011;54238;52.278;21.056;2022-08-21T10:25:14;6.60;;;2.90;;
67352;SDS011;54238;52.278;21.056;2022-08-21T10:30:55;3.70;;;2.90;;
67352;SDS011;54238;52.278;21.056;2022-08-21T10:33:42;3.80;;;3.10;;
67352;SDS011;54238;52.278;21.056;2022-08-21T10:36:21;3.90;;;3.10;;
67352;SDS011;54238;52.278;21.056;2022-08-21T10:39:03;7.80;;;3.10;;
67352;SDS011;54238;52.278;21.056;2022-08-21T10:50:16;3.70;;;2.70;;
67352;SDS011;54238;52.278;21.056;2022-08-21T11:01:18;4.00;;;2.70;;
67352;SDS011;54238;52.278;21.056;2022-08-21T11:04:08;5.50;;;3.00;;
67352;SDS011;54238;52.278;21.056;2022-08-21T11:06:48;2.90;;;2.50;;
67352;SDS011;54238;52.278;21.056;2022-08-21T11:09:30;3.60;;;2.90;;
67352;SDS011;54238;52.278;21.056;2022-08-21T11:15:32;3.40;;;2.60;;
67352;SDS011;54238;52.278;21.056;2022-08-21T11:21:25;7.20;;;2.90;;
67352;SDS011;54238;52.278;21.056;2022-08-21T11:26:54;2.70;;;2.20;;
67352;SDS011;54238;52.278;21.056;2022-08-21T11:29:43;4.50;;;2.70;;
67352;SDS011;54238;52.278;21.056;2022-08-21T11:32:44;7.50;;;2.50;;
67352;SDS011;54238;52.278;21.056;2022-08-21T11:44:11;7.30;;;3.10;;
67352;SDS011;54238;52.278;21.056;2022-08-21T11:46:57;4.20;;;2.60;;
67352;SDS011;54238;52.278;21.056;2022-08-21T11:52:32;3.70;;;2.70;;
67352;SDS011;54238;52.278;21.056;2022-08-21T11:55:12;4.30;;;3.00;;
67352;SDS011;54238;52.278;21.056;2022-08-21T11:57:52;4.40;;;2.80;;
67352;SDS011;54238;52.278;21.056;2022-08-21T12:03:23;5.50;;;2.80;;
67352;SDS011;54238;52.278;21.056;2022-08-21T12:05:57;6.40;;;2.80;;
67352;SDS011;54238;52.278;21.056;2022-08-21T12:08:33;5.10;;;3.70;;
67352;SDS011;54238;52.278;21.056;2022-08-21T12:16:41;2.90;;;2.30;;
67352;SDS011;54238;52.278;21.056;2022-08-21T12:19:14;5.10;;;2.90;;
67352;SDS011;54238;52.278;21.056;2022-08-21T12:26:59;3.60;;;2.90;;
67352;SDS011;54238;52.278;21.056;2022-08-21T12:29:47;3.60;;;2.70;;
67352;SDS011;54238;52.278;21.056;2022-08-21T12:32:25;5.90;;;2.60;;
67352;SDS011;54238;52.278;21.056;2022-08-21T12:35:07;4.20;;;2.70;;
67352;SDS011;54238;52.278;21.056;2022-08-21T12:40:28;3.50;;;2.50;;
67352;SDS011;54238;52.278;21.056;2022-08-21T12:43:01;2.60;;;2.40;;
67352;SDS011;54238;52.278;21.056;2022-08-21T12:45:37;5.10;;;2.40;;
67352;SDS011;54238;52.278;21.056;2022-08-21T12:48:14;3.40;;;2.70;;
67352;SDS011;54238;52.278;21.056;2022-08-21T12:51:05;5.10;;;2.70;;
67352;SDS011;54238;52.278;21.056;2022-08-21T12:53:53;4.00;;;2.90;;
67352;SDS011;54238;52.278;21.056;2022-08-21T12:56:29;3.70;;;2.40;;
67352;SDS011;54238;52.278;21.056;2022-08-21T12:59:05;3.90;;;2.60;;
67352;SDS011;54238;52.278;21.056;2022-08-21T13:01:50;5.30;;;2.80;;
67352;SDS011;54238;52.278;21.056;2022-08-21T13:04:22;4.00;;;2.90;;
67352;SDS011;54238;52.278;21.056;2022-08-21T13:07:15;5.50;;;2.60;;
67352;SDS011;54238;52.278;21.056;2022-08-21T13:09:57;9.40;;;2.70;;
67352;SDS011;54238;52.278;21.056;2022-08-21T13:12:27;3.90;;;2.50;;
67352;SDS011;54238;52.278;21.056;2022-08-21T13:15:00;5.80;;;2.70;;
67352;SDS011;54238;52.278;21.056;2022-08-21T13:17:35;6.00;;;2.80;;
67352;SDS011;54238;52.278;21.056;2022-08-21T13:20:21;4.10;;;2.90;;
67352;SDS011;54238;52.278;21.056;2022-08-21T13:23:02;3.20;;;2.90;;
67352;SDS011;54238;52.278;21.056;2022-08-21T13:25:42;4.80;;;2.80;;
67352;SDS011;54238;52.278;21.056;2022-08-21T13:28:12;4.00;;;2.60;;
67352;SDS011;54238;52.278;21.056;2022-08-21T13:30:44;5.30;;;2.90;;
67352;SDS011;54238;52.278;21.056;2022-08-21T13:33:17;7.10;;;2.70;;
67352;SDS011;54238;52.278;21.056;2022-08-21T13:38:30;4.60;;;2.80;;
67352;SDS011;54238;52.278;21.056;2022-08-21T13:41:04;4.50;;;2.90;;
67352;SDS011;54238;52.278;21.056;2022-08-21T13:43:46;3.40;;;2.90;;
67352;SDS011;54238;52.278;21.056;2022-08-21T13:46:22;4.80;;;2.70;;
67352;SDS011;54238;52.278;21.056;2022-08-21T13:49:00;4.20;;;3.00;;
67352;SDS011;54238;52.278;21.056;2022-08-21T13:51:30;6.20;;;3.40;;
67352;SDS011;54238;52.278;21.056;2022-08-21T13:54:02;3.60;;;2.90;;
67352;SDS011;54238;52.278;21.056;2022-08-21T13:56:46;4.10;;;2.70;;
67352;SDS011;54238;52.278;21.056;2022-08-21T13:59:34;9.90;;;2.70;;
67352;SDS011;54238;52.278;21.056;2022-08-21T14:02:16;7.00;;;2.80;;
67352;SDS011;54238;52.278;21.056;2022-08-21T14:04:57;3.90;;;2.60;;
67352;SDS011;54238;52.278;21.056;2022-08-21T14:07:31;5.70;;;2.80;;
67352;SDS011;54238;52.278;21.056;2022-08-21T14:10:11;9.10;;;2.70;;
67352;SDS011;54238;52.278;21.056;2022-08-21T14:12:57;3.70;;;2.90;;
67352;SDS011;54238;52.278;21.056;2022-08-21T14:15:34;3.50;;;2.50;;
67352;SDS011;54238;52.278;21.056;2022-08-21T14:18:09;4.50;;;2.90;;
67352;SDS011;54238;52.278;21.056;2022-08-21T14:20:44;5.40;;;2.60;;
67352;SDS011;54238;52.278;21.056;2022-08-21T14:23:26;3.60;;;3.10;;
67352;SDS011;54238;52.278;21.056;2022-08-21T14:25:58;6.10;;;2.40;;
67352;SDS011;54238;52.278;21.056;2022-08-21T14:28:31;4.20;;;2.50;;
67352;SDS011;54238;52.278;21.056;2022-08-21T14:31:20;2.90;;;2.40;;
67352;SDS011;54238;52.278;21.056;2022-08-21T14:33:50;4.80;;;3.00;;
67352;SDS011;54238;52.278;21.056;2022-08-21T14:36:17;4.40;;;2.50;;
67352;SDS011;54238;52.278;21.056;2022-08-21T14:38:47;6.80;;;2.40;;
67352;SDS011;54238;52.278;21.056;2022-08-21T14:41:23;3.30;;;2.40;;
67352;SDS011;54238;52.278;21.056;2022-08-21T14:43:55;6.40;;;2.20;;
67352;SDS011;54238;52.278;21.056;2022-08-21T14:46:28;5.40;;;2.90;;
67352;SDS011;54238;52.278;21.056;2022-08-21T14:48:59;3.10;;;2.20;;
67352;SDS011;54238;52.278;21.056;2022-08-21T14:51:31;5.00;;;2.10;;
67352;SDS011;54238;52.278;21.056;2022-08-21T14:53:59;3.20;;;2.20;;
67352;SDS011;54238;52.278;21.056;2022-08-21T14:56:26;7.40;;;2.50;;
67352;SDS011;54238;52.278;21.056;2022-08-21T14:59:04;2.60;;;2.30;;
67352;SDS011;54238;52.278;21.056;2022-08-21T15:01:44;2.20;;;2.00;;
67352;SDS011;54238;52.278;21.056;2022-08-21T15:04:16;3.90;;;2.10;;
67352;SDS011;54238;52.278;21.056;2022-08-21T15:06:45;3.50;;;2.00;;
67352;SDS011;54238;52.278;21.056;2022-08-21T15:09:15;6.20;;;2.90;;
67352;SDS011;54238;52.278;21.056;2022-08-21T15:11:44;4.80;;;2.30;;
67352;SDS011;54238;52.278;21.056;2022-08-21T15:14:20;2.90;;;2.30;;
67352;SDS011;54238;52.278;21.056;2022-08-21T15:16:51;4.60;;;2.20;;
67352;SDS011;54238;52.278;21.056;2022-08-21T15:19:22;3.00;;;2.30;;
67352;SDS011;54238;52.278;21.056;2022-08-21T15:21:51;3.50;;;2.00;;
67352;SDS011;54238;52.278;21.056;2022-08-21T15:24:23;9.70;;;2.40;;
67352;SDS011;54238;52.278;21.056;2022-08-21T15:26:58;2.50;;;2.10;;
67352;SDS011;54238;52.278;21.056;2022-08-21T15:29:42;4.10;;;2.40;;
67352;SDS011;54238;52.278;21.056;2022-08-21T15:32:21;5.20;;;2.40;;
67352;SDS011;54238;52.278;21.056;2022-08-21T15:34:51;3.50;;;2.20;;
67352;SDS011;54238;52.278;21.056;2022-08-21T15:37:20;2.80;;;2.20;;
67352;SDS011;54238;52.278;21.056;2022-08-21T15:39:49;3.90;;;2.40;;
67352;SDS011;54238;52.278;21.056;2022-08-21T15:42:20;3.30;;;2.60;;
67352;SDS011;54238;52.278;21.056;2022-08-21T15:44:56;3.80;;;2.40;;
67352;SDS011;54238;52.278;21.056;2022-08-21T15:47:29;3.60;;;2.60;;
67352;SDS011;54238;52.278;21.056;2022-08-21T15:49:58;3.40;;;2.30;;
67352;SDS011;54238;52.278;21.056;2022-08-21T15:52:28;3.50;;;2.80;;
67352;SDS011;54238;52.278;21.056;2022-08-21T15:55:06;5.60;;;2.80;;
67352;SDS011;54238;52.278;21.056;2022-08-21T15:57:37;4.60;;;2.70;;
67352;SDS011;54238;52.278;21.056;2022-08-21T16:00:20;9.30;;;3.00;;
67352;SDS011;54238;52.278;21.056;2022-08-21T16:02:58;5.30;;;2.80;;
67352;SDS011;54238;52.278;21.056;2022-08-21T16:05:28;3.20;;;2.70;;
67352;SDS011;54238;52.278;21.056;2022-08-21T16:08:03;7.80;;;2.80;;
67352;SDS011;54238;52.278;21.056;2022-08-21T16:10:34;3.20;;;2.40;;
67352;SDS011;54238;52.278;21.056;2022-08-21T16:13:20;2.90;;;2.70;;
67352;SDS011;54238;52.278;21.056;2022-08-21T16:15:51;9.40;;;2.90;;
67352;SDS011;54238;52.278;21.056;2022-08-21T16:18:26;4.60;;;3.50;;
67352;SDS011;54238;52.278;21.056;2022-08-21T16:20:56;4.70;;;2.60;;
67352;SDS011;54238;52.278;21.056;2022-08-21T16:23:27;3.30;;;2.80;;
67352;SDS011;54238;52.278;21.056;2022-08-21T16:25:58;3.20;;;2.90;;
67352;SDS011;54238;52.278;21.056;2022-08-21T16:28:31;3.10;;;2.80;;
67352;SDS011;54238;52.278;21.056;2022-08-21T16:31:07;6.60;;;3.20;;
67352;SDS011;54238;52.278;21.056;2022-08-21T16:33:45;3.60;;;2.80;;